sensor_id;sensor_type;location;lat;lon;timestamp;temperature;humidity
546;DHT22;259;53.304;9.816;2024-02-04T00:02:20;9.30;93.40
546;DHT22;259;53.304;9.816;2024-02-04T00:04:48;9.30;93.40
546;DHT22;259;53.304;9.816;2024-02-04T00:07:14;9.30;93.30
546;DHT22;259;53.304;9.816;2024-02-04T00:09:39;9.30;93.30
546;DHT22;259;53.304;9.816;2024-02-04T00:12:05;9.30;93.30
546;DHT22;259;53.304;9.816;2024-02-04T00:14:31;9.30;93.40
546;DHT22;259;53.304;9.816;2024-02-04T00:16:57;9.30;93.20
546;DHT22;259;53.304;9.816;2024-02-04T00:19:24;9.30;93.30
546;DHT22;259;53.304;9.816;2024-02-04T00:21:49;9.30;93.30
546;DHT22;259;53.304;9.816;2024-02-04T00:24:15;9.30;93.50
546;DHT22;259;53.304;9.816;2024-02-04T00:26:41;9.30;93.40
546;DHT22;259;53.304;9.816;2024-02-04T00:29:06;9.30;93.10
546;DHT22;259;53.304;9.816;2024-02-04T00:31:32;9.30;93.50
546;DHT22;259;53.304;9.816;2024-02-04T00:33:58;9.30;93.30
546;DHT22;259;53.304;9.816;2024-02-04T00:36:23;9.30;93.20
546;DHT22;259;53.304;9.816;2024-02-04T00:38:49;9.30;93.20
546;DHT22;259;53.304;9.816;2024-02-04T00:41:15;9.30;93.20
546;DHT22;259;53.304;9.816;2024-02-04T00:43:40;9.30;93.30
546;DHT22;259;53.304;9.816;2024-02-04T00:46:06;9.30;93.30
546;DHT22;259;53.304;9.816;2024-02-04T00:48:33;9.30;93.10
546;DHT22;259;53.304;9.816;2024-02-04T00:50:59;9.30;93.30
546;DHT22;259;53.304;9.816;2024-02-04T00:53:24;9.20;93.30
546;DHT22;259;53.304;9.816;2024-02-04T00:55:52;9.20;93.50
546;DHT22;259;53.304;9.816;2024-02-04T00:58:18;9.20;93.20
546;DHT22;259;53.304;9.816;2024-02-04T01:00:43;9.20;93.40
546;DHT22;259;53.304;9.816;2024-02-04T01:03:09;9.20;93.30
546;DHT22;259;53.304;9.816;2024-02-04T01:05:35;9.20;93.20
546;DHT22;259;53.304;9.816;2024-02-04T01:08:01;9.20;93.50
546;DHT22;259;53.304;9.816;2024-02-04T01:10:26;9.20;93.30
546;DHT22;259;53.304;9.816;2024-02-04T01:12:52;9.20;93.30
546;DHT22;259;53.304;9.816;2024-02-04T01:15:18;9.20;93.40
546;DHT22;259;53.304;9.816;2024-02-04T01:17:43;9.20;93.30
546;DHT22;259;53.304;9.816;2024-02-04T01:20:10;9.20;93.50
546;DHT22;259;53.304;9.816;2024-02-04T01:22:35;9.20;93.60
546;DHT22;259;53.304;9.816;2024-02-04T01:25:01;9.20;93.50
546;DHT22;259;53.304;9.816;2024-02-04T01:27:26;9.20;93.50
546;DHT22;259;53.304;9.816;2024-02-04T01:29:52;9.20;93.50
546;DHT22;259;53.304;9.816;2024-02-04T01:32:18;9.20;93.50
546;DHT22;259;53.304;9.816;2024-02-04T01:34:44;9.20;93.50
546;DHT22;259;53.304;9.816;2024-02-04T01:37:10;9.10;93.50
546;DHT22;259;53.304;9.816;2024-02-04T01:39:35;9.10;93.60
546;DHT22;259;53.304;9.816;2024-02-04T01:42:01;9.10;93.40
546;DHT22;259;53.304;9.816;2024-02-04T01:44:27;9.10;93.30
546;DHT22;259;53.304;9.816;2024-02-04T01:46:53;9.10;93.50
546;DHT22;259;53.304;9.816;2024-02-04T01:49:20;9.10;93.50
546;DHT22;259;53.304;9.816;2024-02-04T01:51:45;9.10;93.50
546;DHT22;259;53.304;9.816;2024-02-04T01:54:12;9.20;93.30
546;DHT22;259;53.304;9.816;2024-02-04T01:56:37;9.10;93.40
546;DHT22;259;53.304;9.816;2024-02-04T01:59:03;9.10;93.40
546;DHT22;259;53.304;9.816;2024-02-04T02:01:29;9.10;93.30
546;DHT22;259;53.304;9.816;2024-02-04T02:03:54;9.10;93.60
546;DHT22;259;53.304;9.816;2024-02-04T02:06:21;9.10;93.60
546;DHT22;259;53.304;9.816;2024-02-04T02:08:47;9.10;93.60
546;DHT22;259;53.304;9.816;2024-02-04T02:11:35;9.10;93.70
546;DHT22;259;53.304;9.816;2024-02-04T02:14:04;9.10;93.70
546;DHT22;259;53.304;9.816;2024-02-04T02:16:33;9.10;93.70
546;DHT22;259;53.304;9.816;2024-02-04T02:22:38;9.10;93.70
546;DHT22;259;53.304;9.816;2024-02-04T02:25:07;9.10;93.70
546;DHT22;259;53.304;9.816;2024-02-04T02:27:33;9.10;93.80
546;DHT22;259;53.304;9.816;2024-02-04T02:29:59;9.10;93.70
546;DHT22;259;53.304;9.816;2024-02-04T02:32:25;9.00;93.70
546;DHT22;259;53.304;9.816;2024-02-04T02:34:51;9.00;93.70
546;DHT22;259;53.304;9.816;2024-02-04T02:37:43;9.10;93.70
546;DHT22;259;53.304;9.816;2024-02-04T02:40:23;9.00;93.80
546;DHT22;259;53.304;9.816;2024-02-04T02:42:54;9.00;93.70
546;DHT22;259;53.304;9.816;2024-02-04T02:45:21;9.00;93.70
546;DHT22;259;53.304;9.816;2024-02-04T02:47:49;9.00;93.70
546;DHT22;259;53.304;9.816;2024-02-04T02:50:16;9.00;93.60
546;DHT22;259;53.304;9.816;2024-02-04T02:52:42;9.00;93.70
546;DHT22;259;53.304;9.816;2024-02-04T02:55:07;9.00;93.70
546;DHT22;259;53.304;9.816;2024-02-04T02:57:33;9.00;93.70
546;DHT22;259;53.304;9.816;2024-02-04T02:59:59;9.00;93.70
546;DHT22;259;53.304;9.816;2024-02-04T03:02:24;9.00;93.60
546;DHT22;259;53.304;9.816;2024-02-04T03:04:50;9.00;93.60
546;DHT22;259;53.304;9.816;2024-02-04T03:07:16;9.00;93.80
546;DHT22;259;53.304;9.816;2024-02-04T03:09:41;9.00;93.70
546;DHT22;259;53.304;9.816;2024-02-04T03:12:08;9.00;93.70
546;DHT22;259;53.304;9.816;2024-02-04T03:14:34;9.00;93.60
546;DHT22;259;53.304;9.816;2024-02-04T03:17:00;9.00;93.70
546;DHT22;259;53.304;9.816;2024-02-04T03:19:26;9.00;93.70
546;DHT22;259;53.304;9.816;2024-02-04T03:21:51;9.00;93.70
546;DHT22;259;53.304;9.816;2024-02-04T03:24:17;9.00;93.60
546;DHT22;259;53.304;9.816;2024-02-04T03:26:42;9.00;93.80
546;DHT22;259;53.304;9.816;2024-02-04T03:29:08;9.00;93.80
546;DHT22;259;53.304;9.816;2024-02-04T03:31:34;9.00;93.70
546;DHT22;259;53.304;9.816;2024-02-04T03:33:59;9.00;93.80
546;DHT22;259;53.304;9.816;2024-02-04T03:36:27;9.00;93.70
546;DHT22;259;53.304;9.816;2024-02-04T03:38:52;9.00;93.80
546;DHT22;259;53.304;9.816;2024-02-04T03:41:18;9.00;93.80
546;DHT22;259;53.304;9.816;2024-02-04T03:43:44;9.00;93.70
546;DHT22;259;53.304;9.816;2024-02-04T03:46:16;9.00;93.80
546;DHT22;259;53.304;9.816;2024-02-04T03:48:43;8.90;93.70
546;DHT22;259;53.304;9.816;2024-02-04T03:51:15;8.90;93.80
546;DHT22;259;53.304;9.816;2024-02-04T03:53:42;8.90;93.60
546;DHT22;259;53.304;9.816;2024-02-04T03:56:08;8.90;93.60
546;DHT22;259;53.304;9.816;2024-02-04T03:58:34;8.90;93.80
546;DHT22;259;53.304;9.816;2024-02-04T04:01:00;8.90;93.70
546;DHT22;259;53.304;9.816;2024-02-04T04:03:26;8.90;93.80
546;DHT22;259;53.304;9.816;2024-02-04T04:05:53;8.90;93.80
546;DHT22;259;53.304;9.816;2024-02-04T04:08:19;8.90;93.70
546;DHT22;259;53.304;9.816;2024-02-04T04:10:45;8.90;93.60
546;DHT22;259;53.304;9.816;2024-02-04T04:13:11;8.90;93.40
546;DHT22;259;53.304;9.816;2024-02-04T04:15:37;8.90;93.40
546;DHT22;259;53.304;9.816;2024-02-04T04:18:04;8.90;93.20
546;DHT22;259;53.304;9.816;2024-02-04T04:20:30;8.90;93.50
546;DHT22;259;53.304;9.816;2024-02-04T04:22:56;9.00;93.40
546;DHT22;259;53.304;9.816;2024-02-04T04:25:21;9.00;93.30
546;DHT22;259;53.304;9.816;2024-02-04T04:27:47;9.00;93.30
546;DHT22;259;53.304;9.816;2024-02-04T04:30:13;9.00;93.40
546;DHT22;259;53.304;9.816;2024-02-04T04:32:39;9.00;93.50
546;DHT22;259;53.304;9.816;2024-02-04T04:35:05;9.00;93.50
546;DHT22;259;53.304;9.816;2024-02-04T04:37:30;9.00;93.50
546;DHT22;259;53.304;9.816;2024-02-04T04:39:56;9.00;93.40
546;DHT22;259;53.304;9.816;2024-02-04T04:42:22;9.00;93.30
546;DHT22;259;53.304;9.816;2024-02-04T04:44:47;9.00;93.40
546;DHT22;259;53.304;9.816;2024-02-04T04:47:15;9.00;93.60
546;DHT22;259;53.304;9.816;2024-02-04T04:49:41;9.00;93.60
546;DHT22;259;53.304;9.816;2024-02-04T04:52:07;9.00;93.40
546;DHT22;259;53.304;9.816;2024-02-04T04:54:32;8.90;93.20
546;DHT22;259;53.304;9.816;2024-02-04T04:56:58;8.90;93.30
546;DHT22;259;53.304;9.816;2024-02-04T04:59:24;8.90;93.20
546;DHT22;259;53.304;9.816;2024-02-04T05:01:49;8.90;93.50
546;DHT22;259;53.304;9.816;2024-02-04T05:04:16;8.90;93.40
546;DHT22;259;53.304;9.816;2024-02-04T05:06:44;8.90;93.50
546;DHT22;259;53.304;9.816;2024-02-04T05:09:09;8.90;93.50
546;DHT22;259;53.304;9.816;2024-02-04T05:11:35;8.90;93.80
546;DHT22;259;53.304;9.816;2024-02-04T05:14:01;8.90;93.80
546;DHT22;259;53.304;9.816;2024-02-04T05:16:26;8.90;93.80
546;DHT22;259;53.304;9.816;2024-02-04T05:18:52;8.90;93.80
546;DHT22;259;53.304;9.816;2024-02-04T05:21:18;8.90;93.70
546;DHT22;259;53.304;9.816;2024-02-04T05:23:43;8.90;93.80
546;DHT22;259;53.304;9.816;2024-02-04T05:26:10;8.90;93.80
546;DHT22;259;53.304;9.816;2024-02-04T05:28:35;8.90;93.90
546;DHT22;259;53.304;9.816;2024-02-04T05:31:01;8.90;93.80
546;DHT22;259;53.304;9.816;2024-02-04T05:33:28;8.90;93.70
546;DHT22;259;53.304;9.816;2024-02-04T05:35:53;8.90;93.90
546;DHT22;259;53.304;9.816;2024-02-04T05:38:21;8.90;93.90
546;DHT22;259;53.304;9.816;2024-02-04T05:40:46;8.90;93.90
546;DHT22;259;53.304;9.816;2024-02-04T05:43:12;8.90;93.80
546;DHT22;259;53.304;9.816;2024-02-04T05:45:38;8.80;93.90
546;DHT22;259;53.304;9.816;2024-02-04T05:48:07;8.80;93.90
546;DHT22;259;53.304;9.816;2024-02-04T05:50:33;8.80;93.90
546;DHT22;259;53.304;9.816;2024-02-04T05:52:58;8.80;93.90
546;DHT22;259;53.304;9.816;2024-02-04T05:55:24;8.80;93.80
546;DHT22;259;53.304;9.816;2024-02-04T05:57:50;8.80;94.00
546;DHT22;259;53.304;9.816;2024-02-04T06:00:16;8.80;93.80
546;DHT22;259;53.304;9.816;2024-02-04T06:02:42;8.80;93.90
546;DHT22;259;53.304;9.816;2024-02-04T06:05:12;8.80;94.00
546;DHT22;259;53.304;9.816;2024-02-04T06:07:38;8.80;93.90
546;DHT22;259;53.304;9.816;2024-02-04T06:10:04;8.80;94.00
546;DHT22;259;53.304;9.816;2024-02-04T06:12:30;8.80;94.00
546;DHT22;259;53.304;9.816;2024-02-04T06:14:56;8.80;93.90
546;DHT22;259;53.304;9.816;2024-02-04T06:17:22;8.80;94.00
546;DHT22;259;53.304;9.816;2024-02-04T06:19:48;8.80;94.00
546;DHT22;259;53.304;9.816;2024-02-04T06:22:14;8.80;94.00
546;DHT22;259;53.304;9.816;2024-02-04T06:24:40;8.80;94.00
546;DHT22;259;53.304;9.816;2024-02-04T06:27:10;8.80;93.80
546;DHT22;259;53.304;9.816;2024-02-04T06:29:36;8.80;93.90
546;DHT22;259;53.304;9.816;2024-02-04T06:32:03;8.80;94.00
546;DHT22;259;53.304;9.816;2024-02-04T06:34:29;8.80;93.90
546;DHT22;259;53.304;9.816;2024-02-04T06:36:54;8.80;93.90
546;DHT22;259;53.304;9.816;2024-02-04T06:39:20;8.70;93.90
546;DHT22;259;53.304;9.816;2024-02-04T06:41:46;8.70;94.00
546;DHT22;259;53.304;9.816;2024-02-04T06:44:11;8.70;94.10
546;DHT22;259;53.304;9.816;2024-02-04T06:46:37;8.70;93.90
546;DHT22;259;53.304;9.816;2024-02-04T06:49:03;8.70;94.00
546;DHT22;259;53.304;9.816;2024-02-04T06:51:28;8.70;93.80
546;DHT22;259;53.304;9.816;2024-02-04T06:53:54;8.70;93.90
546;DHT22;259;53.304;9.816;2024-02-04T06:56:20;8.70;93.90
546;DHT22;259;53.304;9.816;2024-02-04T06:58:46;8.70;93.80
546;DHT22;259;53.304;9.816;2024-02-04T07:01:12;8.70;93.80
546;DHT22;259;53.304;9.816;2024-02-04T07:03:38;8.70;93.90
546;DHT22;259;53.304;9.816;2024-02-04T07:06:04;8.70;93.80
546;DHT22;259;53.304;9.816;2024-02-04T07:08:31;8.70;93.90
546;DHT22;259;53.304;9.816;2024-02-04T07:10:56;8.70;93.90
546;DHT22;259;53.304;9.816;2024-02-04T07:13:22;8.70;93.90
546;DHT22;259;53.304;9.816;2024-02-04T07:15:48;8.70;93.90
546;DHT22;259;53.304;9.816;2024-02-04T07:18:13;8.70;93.80
546;DHT22;259;53.304;9.816;2024-02-04T07:20:39;8.70;93.90
546;DHT22;259;53.304;9.816;2024-02-04T07:23:05;8.70;93.90
546;DHT22;259;53.304;9.816;2024-02-04T07:25:31;8.70;93.90
546;DHT22;259;53.304;9.816;2024-02-04T07:27:57;8.70;93.90
546;DHT22;259;53.304;9.816;2024-02-04T07:30:24;8.70;93.90
546;DHT22;259;53.304;9.816;2024-02-04T07:32:50;8.70;93.80
546;DHT22;259;53.304;9.816;2024-02-04T07:35:16;8.70;93.70
546;DHT22;259;53.304;9.816;2024-02-04T07:37:41;8.70;93.80
546;DHT22;259;53.304;9.816;2024-02-04T07:40:08;8.70;93.70
546;DHT22;259;53.304;9.816;2024-02-04T07:42:33;8.70;93.90
546;DHT22;259;53.304;9.816;2024-02-04T07:44:59;8.70;93.60
546;DHT22;259;53.304;9.816;2024-02-04T07:47:25;8.70;93.80
546;DHT22;259;53.304;9.816;2024-02-04T07:49:50;8.70;93.80
546;DHT22;259;53.304;9.816;2024-02-04T07:52:16;8.60;93.80
546;DHT22;259;53.304;9.816;2024-02-04T07:54:42;8.60;93.80
546;DHT22;259;53.304;9.816;2024-02-04T07:57:12;8.60;93.70
546;DHT22;259;53.304;9.816;2024-02-04T07:59:38;8.60;93.50
546;DHT22;259;53.304;9.816;2024-02-04T08:02:03;8.70;93.50
546;DHT22;259;53.304;9.816;2024-02-04T08:04:30;8.70;93.50
546;DHT22;259;53.304;9.816;2024-02-04T08:06:55;8.70;93.40
546;DHT22;259;53.304;9.816;2024-02-04T08:09:21;8.60;93.30
546;DHT22;259;53.304;9.816;2024-02-04T08:11:47;8.60;93.40
546;DHT22;259;53.304;9.816;2024-02-04T08:14:12;8.60;93.30
546;DHT22;259;53.304;9.816;2024-02-04T08:16:40;8.60;93.30
546;DHT22;259;53.304;9.816;2024-02-04T08:19:07;8.60;93.30
546;DHT22;259;53.304;9.816;2024-02-04T08:21:33;8.60;93.40
546;DHT22;259;53.304;9.816;2024-02-04T08:23:59;8.60;93.40
546;DHT22;259;53.304;9.816;2024-02-04T08:26:25;8.60;93.30
546;DHT22;259;53.304;9.816;2024-02-04T08:28:51;8.60;93.30
546;DHT22;259;53.304;9.816;2024-02-04T08:31:16;8.60;93.30
546;DHT22;259;53.304;9.816;2024-02-04T08:33:42;8.60;93.30
546;DHT22;259;53.304;9.816;2024-02-04T08:36:08;8.60;93.30
546;DHT22;259;53.304;9.816;2024-02-04T08:38:36;8.60;93.30
546;DHT22;259;53.304;9.816;2024-02-04T08:41:03;8.60;93.30
546;DHT22;259;53.304;9.816;2024-02-04T08:43:29;8.60;93.30
546;DHT22;259;53.304;9.816;2024-02-04T08:45:54;8.60;93.30
546;DHT22;259;53.304;9.816;2024-02-04T08:48:20;8.60;93.30
546;DHT22;259;53.304;9.816;2024-02-04T08:50:46;8.60;93.40
546;DHT22;259;53.304;9.816;2024-02-04T08:53:12;8.60;93.30
546;DHT22;259;53.304;9.816;2024-02-04T08:55:37;8.60;93.30
546;DHT22;259;53.304;9.816;2024-02-04T08:58:03;8.60;93.40
546;DHT22;259;53.304;9.816;2024-02-04T09:00:29;8.60;93.30
546;DHT22;259;53.304;9.816;2024-02-04T09:02:55;8.60;93.40
546;DHT22;259;53.304;9.816;2024-02-04T09:05:21;8.60;93.30
546;DHT22;259;53.304;9.816;2024-02-04T09:07:47;8.60;93.40
546;DHT22;259;53.304;9.816;2024-02-04T09:10:12;8.60;93.30
546;DHT22;259;53.304;9.816;2024-02-04T09:12:38;8.60;93.30
546;DHT22;259;53.304;9.816;2024-02-04T09:15:05;8.60;93.70
546;DHT22;259;53.304;9.816;2024-02-04T09:17:31;8.60;93.70
546;DHT22;259;53.304;9.816;2024-02-04T09:20:00;8.60;93.80
546;DHT22;259;53.304;9.816;2024-02-04T09:22:25;8.60;93.70
546;DHT22;259;53.304;9.816;2024-02-04T09:24:51;8.60;93.80
546;DHT22;259;53.304;9.816;2024-02-04T09:27:17;8.60;93.80
546;DHT22;259;53.304;9.816;2024-02-04T09:29:43;8.60;93.70
546;DHT22;259;53.304;9.816;2024-02-04T09:32:08;8.60;93.80
546;DHT22;259;53.304;9.816;2024-02-04T09:34:34;8.60;93.80
546;DHT22;259;53.304;9.816;2024-02-04T09:37:00;8.60;93.70
546;DHT22;259;53.304;9.816;2024-02-04T09:39:26;8.60;93.80
546;DHT22;259;53.304;9.816;2024-02-04T09:41:52;8.60;93.70
546;DHT22;259;53.304;9.816;2024-02-04T09:44:19;8.60;93.80
546;DHT22;259;53.304;9.816;2024-02-04T09:46:45;8.60;93.80
546;DHT22;259;53.304;9.816;2024-02-04T09:49:12;8.60;93.60
546;DHT22;259;53.304;9.816;2024-02-04T09:51:40;8.60;93.50
546;DHT22;259;53.304;9.816;2024-02-04T09:54:07;8.60;93.40
546;DHT22;259;53.304;9.816;2024-02-04T09:56:37;8.60;93.40
546;DHT22;259;53.304;9.816;2024-02-04T09:59:04;8.60;93.60
546;DHT22;259;53.304;9.816;2024-02-04T10:01:31;8.60;93.40
546;DHT22;259;53.304;9.816;2024-02-04T10:03:57;8.60;93.50
546;DHT22;259;53.304;9.816;2024-02-04T10:06:24;8.60;93.40
546;DHT22;259;53.304;9.816;2024-02-04T10:08:50;8.60;93.30
546;DHT22;259;53.304;9.816;2024-02-04T10:11:16;8.60;93.60
546;DHT22;259;53.304;9.816;2024-02-04T10:13:46;8.60;93.70
546;DHT22;259;53.304;9.816;2024-02-04T10:16:16;8.60;93.50
546;DHT22;259;53.304;9.816;2024-02-04T10:18:44;8.60;93.50
546;DHT22;259;53.304;9.816;2024-02-04T10:23:47;8.60;93.40
546;DHT22;259;53.304;9.816;2024-02-04T10:26:13;8.60;93.50
546;DHT22;259;53.304;9.816;2024-02-04T10:28:39;8.60;93.70
546;DHT22;259;53.304;9.816;2024-02-04T10:31:08;8.60;93.70
546;DHT22;259;53.304;9.816;2024-02-04T10:33:35;8.60;93.80
546;DHT22;259;53.304;9.816;2024-02-04T10:36:01;8.60;93.90
546;DHT22;259;53.304;9.816;2024-02-04T10:38:28;8.60;93.70
546;DHT22;259;53.304;9.816;2024-02-04T10:40:54;8.60;93.80
546;DHT22;259;53.304;9.816;2024-02-04T10:43:21;8.60;93.90
546;DHT22;259;53.304;9.816;2024-02-04T10:45:47;8.60;93.70
546;DHT22;259;53.304;9.816;2024-02-04T10:48:19;8.60;93.50
546;DHT22;259;53.304;9.816;2024-02-04T10:50:46;8.60;93.50
546;DHT22;259;53.304;9.816;2024-02-04T10:53:17;8.60;93.90
546;DHT22;259;53.304;9.816;2024-02-04T10:55:46;8.60;93.90
546;DHT22;259;53.304;9.816;2024-02-04T10:58:13;8.60;93.60
546;DHT22;259;53.304;9.816;2024-02-04T11:00:43;8.60;93.70
546;DHT22;259;53.304;9.816;2024-02-04T11:03:09;8.60;93.80
546;DHT22;259;53.304;9.816;2024-02-04T11:05:37;8.60;93.50
546;DHT22;259;53.304;9.816;2024-02-04T11:08:04;8.60;93.70
546;DHT22;259;53.304;9.816;2024-02-04T11:10:31;8.60;93.70
546;DHT22;259;53.304;9.816;2024-02-04T11:12:58;8.60;93.40
546;DHT22;259;53.304;9.816;2024-02-04T11:15:29;8.60;93.40
546;DHT22;259;53.304;9.816;2024-02-04T11:26:48;8.60;93.80
546;DHT22;259;53.304;9.816;2024-02-04T11:29:14;8.60;93.60
546;DHT22;259;53.304;9.816;2024-02-04T11:31:40;8.60;93.60
546;DHT22;259;53.304;9.816;2024-02-04T11:34:06;8.60;93.70
546;DHT22;259;53.304;9.816;2024-02-04T11:36:38;8.60;93.70
546;DHT22;259;53.304;9.816;2024-02-04T11:39:17;8.60;93.60
546;DHT22;259;53.304;9.816;2024-02-04T11:41:47;8.60;93.50
546;DHT22;259;53.304;9.816;2024-02-04T11:44:23;8.60;93.50
546;DHT22;259;53.304;9.816;2024-02-04T11:46:50;8.60;93.50
546;DHT22;259;53.304;9.816;2024-02-04T11:49:18;8.60;93.80
546;DHT22;259;53.304;9.816;2024-02-04T11:51:48;8.60;93.60
546;DHT22;259;53.304;9.816;2024-02-04T11:54:16;8.60;93.50
546;DHT22;259;53.304;9.816;2024-02-04T11:56:45;8.60;93.50
546;DHT22;259;53.304;9.816;2024-02-04T11:59:11;8.60;93.50
546;DHT22;259;53.304;9.816;2024-02-04T12:01:39;8.60;93.50
546;DHT22;259;53.304;9.816;2024-02-04T12:04:16;8.60;93.50
546;DHT22;259;53.304;9.816;2024-02-04T12:06:42;8.60;93.50
546;DHT22;259;53.304;9.816;2024-02-04T12:09:09;8.60;93.50
546;DHT22;259;53.304;9.816;2024-02-04T12:11:36;8.60;93.50
546;DHT22;259;53.304;9.816;2024-02-04T12:14:04;8.60;93.50
546;DHT22;259;53.304;9.816;2024-02-04T12:16:33;8.60;93.60
546;DHT22;259;53.304;9.816;2024-02-04T12:19:04;8.60;93.60
546;DHT22;259;53.304;9.816;2024-02-04T12:21:30;8.60;93.50
546;DHT22;259;53.304;9.816;2024-02-04T12:23:56;8.60;93.50
546;DHT22;259;53.304;9.816;2024-02-04T12:26:23;8.60;93.50
546;DHT22;259;53.304;9.816;2024-02-04T12:28:49;8.60;93.50
546;DHT22;259;53.304;9.816;2024-02-04T12:31:24;8.70;93.60
546;DHT22;259;53.304;9.816;2024-02-04T12:33:56;8.60;93.60
546;DHT22;259;53.304;9.816;2024-02-04T12:36:27;8.60;93.60
546;DHT22;259;53.304;9.816;2024-02-04T12:38:55;8.60;93.50
546;DHT22;259;53.304;9.816;2024-02-04T12:41:25;8.70;93.60
546;DHT22;259;53.304;9.816;2024-02-04T12:43:52;8.70;93.60
546;DHT22;259;53.304;9.816;2024-02-04T12:46:22;8.70;93.60
546;DHT22;259;53.304;9.816;2024-02-04T12:48:55;8.60;93.50
546;DHT22;259;53.304;9.816;2024-02-04T12:51:31;8.70;93.90
546;DHT22;259;53.304;9.816;2024-02-04T12:54:09;8.70;93.60
546;DHT22;259;53.304;9.816;2024-02-04T12:56:49;8.70;93.60
546;DHT22;259;53.304;9.816;2024-02-04T12:59:29;8.60;93.90
546;DHT22;259;53.304;9.816;2024-02-04T13:02:01;8.70;93.60
546;DHT22;259;53.304;9.816;2024-02-04T13:04:34;8.70;93.60
546;DHT22;259;53.304;9.816;2024-02-04T13:07:11;8.70;93.60
546;DHT22;259;53.304;9.816;2024-02-04T13:09:42;8.70;93.60
546;DHT22;259;53.304;9.816;2024-02-04T13:12:10;8.70;93.60
546;DHT22;259;53.304;9.816;2024-02-04T13:14:37;8.70;93.60
546;DHT22;259;53.304;9.816;2024-02-04T13:17:03;8.70;93.60
546;DHT22;259;53.304;9.816;2024-02-04T13:19:36;8.60;93.60
546;DHT22;259;53.304;9.816;2024-02-04T13:22:07;8.70;93.60
546;DHT22;259;53.304;9.816;2024-02-04T13:24:35;8.60;93.60
546;DHT22;259;53.304;9.816;2024-02-04T13:27:01;8.70;93.60
546;DHT22;259;53.304;9.816;2024-02-04T13:29:28;8.70;93.60
546;DHT22;259;53.304;9.816;2024-02-04T13:31:54;8.70;93.60
546;DHT22;259;53.304;9.816;2024-02-04T13:34:20;8.70;93.70
546;DHT22;259;53.304;9.816;2024-02-04T13:36:47;8.70;93.70
546;DHT22;259;53.304;9.816;2024-02-04T13:39:12;8.70;93.70
546;DHT22;259;53.304;9.816;2024-02-04T13:41:39;8.70;93.70
546;DHT22;259;53.304;9.816;2024-02-04T13:44:05;8.70;93.70
546;DHT22;259;53.304;9.816;2024-02-04T13:46:31;8.70;93.70
546;DHT22;259;53.304;9.816;2024-02-04T13:48:57;8.70;94.00
546;DHT22;259;53.304;9.816;2024-02-04T13:51:23;8.70;93.60
546;DHT22;259;53.304;9.816;2024-02-04T13:53:49;8.70;93.60
546;DHT22;259;53.304;9.816;2024-02-04T13:56:14;8.70;93.70
546;DHT22;259;53.304;9.816;2024-02-04T13:58:44;8.70;93.60
546;DHT22;259;53.304;9.816;2024-02-04T14:01:10;8.70;93.60
546;DHT22;259;53.304;9.816;2024-02-04T14:03:36;8.70;93.70
546;DHT22;259;53.304;9.816;2024-02-04T14:06:01;8.70;93.60
546;DHT22;259;53.304;9.816;2024-02-04T14:08:29;8.70;93.70
546;DHT22;259;53.304;9.816;2024-02-04T14:10:55;8.70;93.70
546;DHT22;259;53.304;9.816;2024-02-04T14:13:21;8.70;93.60
546;DHT22;259;53.304;9.816;2024-02-04T14:15:47;8.70;93.60
546;DHT22;259;53.304;9.816;2024-02-04T14:18:12;8.70;93.60
546;DHT22;259;53.304;9.816;2024-02-04T14:20:38;8.70;93.70
546;DHT22;259;53.304;9.816;2024-02-04T14:23:04;8.70;93.60
546;DHT22;259;53.304;9.816;2024-02-04T14:25:29;8.70;93.60
546;DHT22;259;53.304;9.816;2024-02-04T14:27:55;8.70;93.60
546;DHT22;259;53.304;9.816;2024-02-04T14:30:21;8.70;93.60
546;DHT22;259;53.304;9.816;2024-02-04T14:32:46;8.70;93.60
546;DHT22;259;53.304;9.816;2024-02-04T14:35:12;8.70;93.60
546;DHT22;259;53.304;9.816;2024-02-04T14:37:38;8.70;93.60
546;DHT22;259;53.304;9.816;2024-02-04T14:40:08;8.70;93.60
546;DHT22;259;53.304;9.816;2024-02-04T14:42:34;8.70;93.60
546;DHT22;259;53.304;9.816;2024-02-04T14:45:00;8.70;93.70
546;DHT22;259;53.304;9.816;2024-02-04T14:47:27;8.70;93.70
546;DHT22;259;53.304;9.816;2024-02-04T14:49:53;8.70;93.60
546;DHT22;259;53.304;9.816;2024-02-04T14:52:19;8.70;93.60
546;DHT22;259;53.304;9.816;2024-02-04T14:54:45;8.70;93.60
546;DHT22;259;53.304;9.816;2024-02-04T14:57:11;8.70;93.60
546;DHT22;259;53.304;9.816;2024-02-04T14:59:38;8.70;93.60
546;DHT22;259;53.304;9.816;2024-02-04T15:02:04;8.70;93.60
546;DHT22;259;53.304;9.816;2024-02-04T15:04:33;8.70;93.60
546;DHT22;259;53.304;9.816;2024-02-04T15:06:59;8.70;93.60
546;DHT22;259;53.304;9.816;2024-02-04T15:09:31;8.70;93.60
546;DHT22;259;53.304;9.816;2024-02-04T15:11:58;8.70;93.60
546;DHT22;259;53.304;9.816;2024-02-04T15:14:24;8.70;93.60
546;DHT22;259;53.304;9.816;2024-02-04T15:16:50;8.70;93.60
546;DHT22;259;53.304;9.816;2024-02-04T15:19:16;8.70;93.60
546;DHT22;259;53.304;9.816;2024-02-04T15:21:42;8.70;93.60
546;DHT22;259;53.304;9.816;2024-02-04T15:24:08;8.70;93.60
546;DHT22;259;53.304;9.816;2024-02-04T15:26:35;8.70;93.60
546;DHT22;259;53.304;9.816;2024-02-04T15:29:06;8.70;93.60
546;DHT22;259;53.304;9.816;2024-02-04T15:31:32;8.70;93.60
546;DHT22;259;53.304;9.816;2024-02-04T15:34:01;8.70;93.60
546;DHT22;259;53.304;9.816;2024-02-04T15:36:29;8.70;93.60
546;DHT22;259;53.304;9.816;2024-02-04T15:38:57;8.70;93.60
546;DHT22;259;53.304;9.816;2024-02-04T15:41:23;8.70;93.60
546;DHT22;259;53.304;9.816;2024-02-04T15:43:49;8.70;93.60
546;DHT22;259;53.304;9.816;2024-02-04T15:46:17;8.70;93.60
546;DHT22;259;53.304;9.816;2024-02-04T15:48:44;8.70;93.60
546;DHT22;259;53.304;9.816;2024-02-04T15:51:11;8.70;93.60
546;DHT22;259;53.304;9.816;2024-02-04T15:53:37;8.70;93.60
546;DHT22;259;53.304;9.816;2024-02-04T15:56:05;8.70;93.60
546;DHT22;259;53.304;9.816;2024-02-04T15:58:35;8.70;93.60
546;DHT22;259;53.304;9.816;2024-02-04T16:01:10;8.70;93.60
546;DHT22;259;53.304;9.816;2024-02-04T16:03:37;8.70;93.60
546;DHT22;259;53.304;9.816;2024-02-04T16:06:06;8.70;93.60
546;DHT22;259;53.304;9.816;2024-02-04T16:08:32;8.70;93.60
546;DHT22;259;53.304;9.816;2024-02-04T16:11:04;8.70;93.60
546;DHT22;259;53.304;9.816;2024-02-04T16:13:33;8.70;93.50
546;DHT22;259;53.304;9.816;2024-02-04T16:16:02;8.70;93.60
546;DHT22;259;53.304;9.816;2024-02-04T16:18:28;8.70;93.60
546;DHT22;259;53.304;9.816;2024-02-04T16:20:55;8.70;93.50
546;DHT22;259;53.304;9.816;2024-02-04T16:23:20;8.70;93.50
546;DHT22;259;53.304;9.816;2024-02-04T16:25:46;8.70;93.50
546;DHT22;259;53.304;9.816;2024-02-04T16:28:12;8.70;93.50
546;DHT22;259;53.304;9.816;2024-02-04T16:30:38;8.70;93.50
546;DHT22;259;53.304;9.816;2024-02-04T16:33:05;8.70;93.50
546;DHT22;259;53.304;9.816;2024-02-04T16:35:30;8.70;93.50
546;DHT22;259;53.304;9.816;2024-02-04T16:37:58;8.70;93.50
546;DHT22;259;53.304;9.816;2024-02-04T16:40:24;8.70;93.50
546;DHT22;259;53.304;9.816;2024-02-04T16:42:50;8.70;93.50
546;DHT22;259;53.304;9.816;2024-02-04T16:45:17;8.70;93.50
546;DHT22;259;53.304;9.816;2024-02-04T16:47:42;8.70;93.50
546;DHT22;259;53.304;9.816;2024-02-04T16:50:08;8.60;93.50
546;DHT22;259;53.304;9.816;2024-02-04T16:52:34;8.70;93.50
546;DHT22;259;53.304;9.816;2024-02-04T16:55:00;8.70;93.50
546;DHT22;259;53.304;9.816;2024-02-04T16:57:26;8.70;93.50
546;DHT22;259;53.304;9.816;2024-02-04T16:59:51;8.70;93.50
546;DHT22;259;53.304;9.816;2024-02-04T17:02:17;8.60;93.50
546;DHT22;259;53.304;9.816;2024-02-04T17:04:45;8.70;93.50